This is the latest recevied weather packets stored in our database for station/object YD2APR-13. If no packets are shown the sender has not sent any weather packets the latest 10 day(s).
| Time | Temp. | Humidity | Pressure | Rain* | Wind** | Luminosity | Snow |
|---|---|---|---|---|---|---|---|
| 1777630308 | 28.33° C | 66% | 1013.3 hPa | - | - | - | - |
| 1777629707 | 28.33° C | 66% | 1013.2 hPa | - | - | - | - |
| 1777629107 | 28.89° C | 66% | 1013.2 hPa | - | - | - | - |
| 1777628507 | 29.44° C | 63% | 1013.2 hPa | - | - | - | - |
| 1777627907 | 29.44° C | 62% | 1013.1 hPa | - | - | - | - |
| 1777627308 | 30° C | 61% | 1013 hPa | - | - | - | - |
| 1777626707 | 30° C | 61% | 1012.9 hPa | - | - | - | - |
| 1777626107 | 30° C | 60% | 1013 hPa | - | - | - | - |
| 1777625507 | 30° C | 60% | 1012.9 hPa | - | - | - | - |
| 1777624907 | 30.56° C | 58% | 1012.9 hPa | - | - | - | - |
| 1777624307 | 30.56° C | 58% | 1012.9 hPa | - | - | - | - |
| 1777623707 | 29.44° C | 61% | 1013 hPa | - | - | - | - |
| 1777623107 | 29.44° C | 61% | 1013 hPa | - | - | - | - |
| 1777598016 | 25.56° C | 78% | 1018.1 hPa | - | - | - | - |
| 1777597416 | 25.56° C | 77% | 1017.9 hPa | - | - | - | - |
| 1777596815 | 25.56° C | 78% | 1017.9 hPa | - | - | - | - |
| 1777596216 | 25.56° C | 77% | 1017.9 hPa | - | - | - | - |
| 1777595616 | 25.56° C | 77% | 1017.7 hPa | - | - | - | - |
| 1777595016 | 25.56° C | 77% | 1017.6 hPa | - | - | - | - |
| 1777594415 | 25.56° C | 77% | 1017.6 hPa | - | - | - | - |
| 1777593816 | 25° C | 77% | 1017.3 hPa | - | - | - | - |
| 1777593216 | 25° C | 77% | 1017.1 hPa | - | - | - | - |
| 1777592615 | 25° C | 77% | 1017 hPa | - | - | - | - |
| 1777592017 | 25° C | 77% | 1016.9 hPa | - | - | - | - |
| 1777591415 | 25° C | 77% | 1016.8 hPa | - | - | - | - |
* Rain since midnight (hover to see other rain measurements)
** Current wind speed in m/s (hover to see current wind gust speed)